sensor_id;sensor_type;location;lat;lon;timestamp;P1;durP1;ratioP1;P2;durP2;ratioP2
31786;SDS011;18356;52.380;9.820;2022-08-19T00:00:38;12.48;;;7.45;;
31786;SDS011;18356;52.380;9.820;2022-08-19T00:03:04;15.32;;;11.80;;
31786;SDS011;18356;52.380;9.820;2022-08-19T00:05:30;14.93;;;7.70;;
31786;SDS011;18356;52.380;9.820;2022-08-19T00:07:56;14.90;;;8.10;;
31786;SDS011;18356;52.380;9.820;2022-08-19T00:10:23;18.20;;;8.20;;
31786;SDS011;18356;52.380;9.820;2022-08-19T00:12:49;15.50;;;8.02;;
31786;SDS011;18356;52.380;9.820;2022-08-19T00:15:16;11.77;;;7.75;;
31786;SDS011;18356;52.380;9.820;2022-08-19T00:17:43;14.55;;;7.43;;
31786;SDS011;18356;52.380;9.820;2022-08-19T00:20:10;12.30;;;8.40;;
31786;SDS011;18356;52.380;9.820;2022-08-19T00:22:37;14.95;;;7.72;;
31786;SDS011;18356;52.380;9.820;2022-08-19T00:25:03;16.17;;;10.35;;
31786;SDS011;18356;52.380;9.820;2022-08-19T00:27:30;11.95;;;8.15;;
31786;SDS011;18356;52.380;9.820;2022-08-19T00:29:56;12.68;;;8.63;;
31786;SDS011;18356;52.380;9.820;2022-08-19T00:32:24;14.48;;;7.90;;
31786;SDS011;18356;52.380;9.820;2022-08-19T00:34:50;12.65;;;8.60;;
31786;SDS011;18356;52.380;9.820;2022-08-19T00:37:17;15.90;;;7.97;;
31786;SDS011;18356;52.380;9.820;2022-08-19T00:39:44;14.63;;;7.82;;
31786;SDS011;18356;52.380;9.820;2022-08-19T00:42:10;16.52;;;8.50;;
31786;SDS011;18356;52.380;9.820;2022-08-19T00:44:36;18.00;;;9.95;;
31786;SDS011;18356;52.380;9.820;2022-08-19T00:47:03;13.05;;;7.90;;
31786;SDS011;18356;52.380;9.820;2022-08-19T00:52:00;16.02;;;7.93;;
31786;SDS011;18356;52.380;9.820;2022-08-19T00:54:28;11.00;;;7.65;;
31786;SDS011;18356;52.380;9.820;2022-08-19T00:56:56;15.60;;;12.30;;
31786;SDS011;18356;52.380;9.820;2022-08-19T00:59:22;11.68;;;7.93;;
31786;SDS011;18356;52.380;9.820;2022-08-19T01:01:49;14.88;;;7.90;;
31786;SDS011;18356;52.380;9.820;2022-08-19T01:04:15;12.30;;;7.90;;
31786;SDS011;18356;52.380;9.820;2022-08-19T01:06:41;15.90;;;7.65;;
31786;SDS011;18356;52.380;9.820;2022-08-19T01:09:07;11.50;;;7.65;;
31786;SDS011;18356;52.380;9.820;2022-08-19T01:11:36;15.27;;;8.73;;
31786;SDS011;18356;52.380;9.820;2022-08-19T01:14:04;13.98;;;9.38;;
31786;SDS011;18356;52.380;9.820;2022-08-19T01:16:31;13.02;;;8.77;;
31786;SDS011;18356;52.380;9.820;2022-08-19T01:18:57;14.02;;;8.50;;
31786;SDS011;18356;52.380;9.820;2022-08-19T01:24:19;15.60;;;10.90;;
31786;SDS011;18356;52.380;9.820;2022-08-19T01:26:46;16.42;;;9.73;;
31786;SDS011;18356;52.380;9.820;2022-08-19T01:29:12;14.43;;;9.60;;
31786;SDS011;18356;52.380;9.820;2022-08-19T01:31:39;15.93;;;8.95;;
31786;SDS011;18356;52.380;9.820;2022-08-19T01:34:05;16.25;;;9.93;;
31786;SDS011;18356;52.380;9.820;2022-08-19T01:36:33;17.65;;;9.63;;
31786;SDS011;18356;52.380;9.820;2022-08-19T01:39:00;15.07;;;9.85;;
31786;SDS011;18356;52.380;9.820;2022-08-19T01:41:26;14.35;;;9.38;;
31786;SDS011;18356;52.380;9.820;2022-08-19T01:43:54;18.65;;;9.07;;
31786;SDS011;18356;52.380;9.820;2022-08-19T01:46:21;15.68;;;9.15;;
31786;SDS011;18356;52.380;9.820;2022-08-19T01:48:47;13.63;;;9.00;;
31786;SDS011;18356;52.380;9.820;2022-08-19T01:51:13;14.45;;;9.55;;
31786;SDS011;18356;52.380;9.820;2022-08-19T01:53:40;13.93;;;9.40;;
31786;SDS011;18356;52.380;9.820;2022-08-19T01:56:07;17.58;;;9.48;;
31786;SDS011;18356;52.380;9.820;2022-08-19T01:58:34;13.70;;;9.48;;
31786;SDS011;18356;52.380;9.820;2022-08-19T02:01:04;17.65;;;9.07;;
31786;SDS011;18356;52.380;9.820;2022-08-19T02:03:30;17.20;;;10.35;;
31786;SDS011;18356;52.380;9.820;2022-08-19T02:05:57;17.85;;;10.25;;
31786;SDS011;18356;52.380;9.820;2022-08-19T02:08:25;16.45;;;9.85;;
31786;SDS011;18356;52.380;9.820;2022-08-19T02:10:51;17.15;;;9.82;;
31786;SDS011;18356;52.380;9.820;2022-08-19T02:13:17;16.15;;;9.65;;
31786;SDS011;18356;52.380;9.820;2022-08-19T02:15:43;13.55;;;9.00;;
31786;SDS011;18356;52.380;9.820;2022-08-19T02:18:09;15.90;;;9.85;;
31786;SDS011;18356;52.380;9.820;2022-08-19T02:20:36;15.43;;;9.63;;
31786;SDS011;18356;52.380;9.820;2022-08-19T02:23:03;14.38;;;9.50;;
31786;SDS011;18356;52.380;9.820;2022-08-19T02:25:29;13.45;;;9.32;;
31786;SDS011;18356;52.380;9.820;2022-08-19T02:27:55;19.85;;;10.50;;
31786;SDS011;18356;52.380;9.820;2022-08-19T02:30:21;15.77;;;9.65;;
31786;SDS011;18356;52.380;9.820;2022-08-19T02:32:48;14.48;;;9.57;;
31786;SDS011;18356;52.380;9.820;2022-08-19T02:35:14;17.63;;;10.68;;
31786;SDS011;18356;52.380;9.820;2022-08-19T02:37:41;19.38;;;9.65;;
31786;SDS011;18356;52.380;9.820;2022-08-19T02:40:26;19.23;;;13.65;;
31786;SDS011;18356;52.380;9.820;2022-08-19T02:42:52;16.83;;;9.65;;
31786;SDS011;18356;52.380;9.820;2022-08-19T02:45:18;14.43;;;9.55;;
31786;SDS011;18356;52.380;9.820;2022-08-19T02:47:45;13.57;;;9.20;;
31786;SDS011;18356;52.380;9.820;2022-08-19T02:50:11;14.82;;;9.90;;
31786;SDS011;18356;52.380;9.820;2022-08-19T02:52:38;14.48;;;9.35;;
31786;SDS011;18356;52.380;9.820;2022-08-19T02:55:04;15.18;;;10.32;;
31786;SDS011;18356;52.380;9.820;2022-08-19T02:57:31;13.40;;;8.30;;
31786;SDS011;18356;52.380;9.820;2022-08-19T02:59:58;18.27;;;8.77;;
31786;SDS011;18356;52.380;9.820;2022-08-19T03:02:24;13.23;;;8.10;;
31786;SDS011;18356;52.380;9.820;2022-08-19T03:04:50;16.15;;;8.60;;
31786;SDS011;18356;52.380;9.820;2022-08-19T03:07:16;12.57;;;8.05;;
31786;SDS011;18356;52.380;9.820;2022-08-19T03:09:43;14.52;;;7.78;;
31786;SDS011;18356;52.380;9.820;2022-08-19T03:12:09;15.23;;;8.45;;
31786;SDS011;18356;52.380;9.820;2022-08-19T03:14:36;15.88;;;7.35;;
31786;SDS011;18356;52.380;9.820;2022-08-19T03:17:02;11.77;;;7.35;;
31786;SDS011;18356;52.380;9.820;2022-08-19T03:19:29;12.30;;;7.30;;
31786;SDS011;18356;52.380;9.820;2022-08-19T03:21:56;11.93;;;6.93;;
31786;SDS011;18356;52.380;9.820;2022-08-19T03:24:22;13.07;;;7.22;;
31786;SDS011;18356;52.380;9.820;2022-08-19T03:26:51;13.48;;;7.57;;
31786;SDS011;18356;52.380;9.820;2022-08-19T03:29:18;10.77;;;7.30;;
31786;SDS011;18356;52.380;9.820;2022-08-19T03:31:44;11.80;;;6.93;;
31786;SDS011;18356;52.380;9.820;2022-08-19T03:34:12;12.18;;;7.25;;
31786;SDS011;18356;52.380;9.820;2022-08-19T03:36:38;11.82;;;6.93;;
31786;SDS011;18356;52.380;9.820;2022-08-19T03:39:05;14.27;;;8.50;;
31786;SDS011;18356;52.380;9.820;2022-08-19T03:41:37;17.23;;;8.40;;
31786;SDS011;18356;52.380;9.820;2022-08-19T03:44:04;13.43;;;7.97;;
31786;SDS011;18356;52.380;9.820;2022-08-19T03:46:31;13.23;;;7.45;;
31786;SDS011;18356;52.380;9.820;2022-08-19T03:48:59;10.70;;;7.47;;
31786;SDS011;18356;52.380;9.820;2022-08-19T03:51:29;13.02;;;8.00;;
31786;SDS011;18356;52.380;9.820;2022-08-19T03:53:57;16.00;;;7.90;;
31786;SDS011;18356;52.380;9.820;2022-08-19T03:56:23;13.70;;;7.50;;
31786;SDS011;18356;52.380;9.820;2022-08-19T03:58:50;14.27;;;10.13;;
31786;SDS011;18356;52.380;9.820;2022-08-19T04:01:18;17.08;;;11.52;;
31786;SDS011;18356;52.380;9.820;2022-08-19T04:03:45;14.98;;;9.73;;
31786;SDS011;18356;52.380;9.820;2022-08-19T04:06:18;11.60;;;8.27;;
31786;SDS011;18356;52.380;9.820;2022-08-19T04:08:47;13.45;;;8.40;;
31786;SDS011;18356;52.380;9.820;2022-08-19T04:11:14;12.43;;;8.18;;
31786;SDS011;18356;52.380;9.820;2022-08-19T04:13:41;15.02;;;8.18;;
31786;SDS011;18356;52.380;9.820;2022-08-19T04:16:09;15.77;;;8.35;;
31786;SDS011;18356;52.380;9.820;2022-08-19T04:18:35;12.05;;;8.07;;
31786;SDS011;18356;52.380;9.820;2022-08-19T04:21:01;11.23;;;7.28;;
31786;SDS011;18356;52.380;9.820;2022-08-19T04:23:28;11.30;;;7.45;;
31786;SDS011;18356;52.380;9.820;2022-08-19T04:25:54;12.90;;;7.55;;
31786;SDS011;18356;52.380;9.820;2022-08-19T04:28:20;17.60;;;7.72;;
31786;SDS011;18356;52.380;9.820;2022-08-19T04:30:51;17.25;;;8.45;;
31786;SDS011;18356;52.380;9.820;2022-08-19T04:33:20;9.65;;;7.10;;
31786;SDS011;18356;52.380;9.820;2022-08-19T04:35:47;12.10;;;7.88;;
31786;SDS011;18356;52.380;9.820;2022-08-19T04:38:14;20.45;;;16.42;;
31786;SDS011;18356;52.380;9.820;2022-08-19T04:40:41;14.45;;;10.48;;
31786;SDS011;18356;52.380;9.820;2022-08-19T04:43:27;12.52;;;8.32;;
31786;SDS011;18356;52.380;9.820;2022-08-19T04:45:53;16.88;;;9.15;;
31786;SDS011;18356;52.380;9.820;2022-08-19T04:48:19;15.25;;;7.65;;
31786;SDS011;18356;52.380;9.820;2022-08-19T04:50:50;14.48;;;9.90;;
31786;SDS011;18356;52.380;9.820;2022-08-19T04:53:21;14.02;;;8.55;;
31786;SDS011;18356;52.380;9.820;2022-08-19T04:55:47;13.52;;;8.00;;
31786;SDS011;18356;52.380;9.820;2022-08-19T04:58:13;11.55;;;8.05;;
31786;SDS011;18356;52.380;9.820;2022-08-19T05:00:41;13.70;;;7.90;;
31786;SDS011;18356;52.380;9.820;2022-08-19T05:03:07;17.42;;;9.07;;
31786;SDS011;18356;52.380;9.820;2022-08-19T05:05:37;12.80;;;7.93;;
31786;SDS011;18356;52.380;9.820;2022-08-19T05:08:07;13.57;;;7.18;;
31786;SDS011;18356;52.380;9.820;2022-08-19T05:10:36;14.20;;;8.20;;
31786;SDS011;18356;52.380;9.820;2022-08-19T05:13:03;10.93;;;8.05;;
31786;SDS011;18356;52.380;9.820;2022-08-19T05:15:29;19.63;;;7.93;;
31786;SDS011;18356;52.380;9.820;2022-08-19T05:17:55;12.52;;;7.68;;
31786;SDS011;18356;52.380;9.820;2022-08-19T05:20:40;15.20;;;8.85;;
31786;SDS011;18356;52.380;9.820;2022-08-19T05:23:25;11.25;;;7.80;;
31786;SDS011;18356;52.380;9.820;2022-08-19T05:25:51;13.95;;;9.13;;
31786;SDS011;18356;52.380;9.820;2022-08-19T05:28:18;13.73;;;8.73;;
31786;SDS011;18356;52.380;9.820;2022-08-19T05:30:44;17.83;;;12.82;;
31786;SDS011;18356;52.380;9.820;2022-08-19T05:33:11;17.20;;;12.65;;
31786;SDS011;18356;52.380;9.820;2022-08-19T05:35:38;12.05;;;7.97;;
31786;SDS011;18356;52.380;9.820;2022-08-19T05:38:06;12.82;;;8.82;;
31786;SDS011;18356;52.380;9.820;2022-08-19T05:40:37;13.68;;;8.10;;
31786;SDS011;18356;52.380;9.820;2022-08-19T05:43:04;14.02;;;9.07;;
31786;SDS011;18356;52.380;9.820;2022-08-19T05:45:30;15.00;;;9.32;;
31786;SDS011;18356;52.380;9.820;2022-08-19T05:47:57;15.07;;;8.93;;
31786;SDS011;18356;52.380;9.820;2022-08-19T05:50:23;16.02;;;8.73;;
31786;SDS011;18356;52.380;9.820;2022-08-19T05:52:51;17.63;;;9.15;;
31786;SDS011;18356;52.380;9.820;2022-08-19T05:55:17;13.57;;;8.20;;
31786;SDS011;18356;52.380;9.820;2022-08-19T05:57:45;13.65;;;7.88;;
31786;SDS011;18356;52.380;9.820;2022-08-19T06:00:11;16.17;;;8.48;;
31786;SDS011;18356;52.380;9.820;2022-08-19T06:02:39;13.25;;;7.65;;
31786;SDS011;18356;52.380;9.820;2022-08-19T06:05:05;11.88;;;8.00;;
31786;SDS011;18356;52.380;9.820;2022-08-19T06:07:34;14.05;;;9.82;;
31786;SDS011;18356;52.380;9.820;2022-08-19T06:10:00;11.82;;;8.40;;
31786;SDS011;18356;52.380;9.820;2022-08-19T06:12:29;13.82;;;9.23;;
31786;SDS011;18356;52.380;9.820;2022-08-19T06:15:00;13.25;;;8.65;;
31786;SDS011;18356;52.380;9.820;2022-08-19T06:17:27;13.00;;;8.50;;
31786;SDS011;18356;52.380;9.820;2022-08-19T06:19:54;13.95;;;9.15;;
31786;SDS011;18356;52.380;9.820;2022-08-19T06:22:20;14.57;;;8.82;;
31786;SDS011;18356;52.380;9.820;2022-08-19T06:24:47;16.17;;;8.75;;
31786;SDS011;18356;52.380;9.820;2022-08-19T06:27:17;16.33;;;8.95;;
31786;SDS011;18356;52.380;9.820;2022-08-19T06:29:43;14.43;;;7.70;;
31786;SDS011;18356;52.380;9.820;2022-08-19T06:32:12;13.68;;;8.13;;
31786;SDS011;18356;52.380;9.820;2022-08-19T06:34:39;12.38;;;7.78;;
31786;SDS011;18356;52.380;9.820;2022-08-19T06:37:06;13.93;;;7.68;;
31786;SDS011;18356;52.380;9.820;2022-08-19T06:39:33;12.75;;;7.47;;
31786;SDS011;18356;52.380;9.820;2022-08-19T06:42:00;15.77;;;7.90;;
31786;SDS011;18356;52.380;9.820;2022-08-19T06:44:27;10.35;;;6.88;;
31786;SDS011;18356;52.380;9.820;2022-08-19T06:46:54;13.27;;;7.35;;
31786;SDS011;18356;52.380;9.820;2022-08-19T06:49:21;11.23;;;8.07;;
31786;SDS011;18356;52.380;9.820;2022-08-19T06:51:48;12.45;;;7.20;;
31786;SDS011;18356;52.380;9.820;2022-08-19T06:54:15;13.80;;;7.68;;
31786;SDS011;18356;52.380;9.820;2022-08-19T06:56:42;14.13;;;8.20;;
31786;SDS011;18356;52.380;9.820;2022-08-19T06:59:11;14.77;;;7.63;;
31786;SDS011;18356;52.380;9.820;2022-08-19T07:01:39;12.73;;;7.68;;
31786;SDS011;18356;52.380;9.820;2022-08-19T07:04:06;11.57;;;6.82;;
31786;SDS011;18356;52.380;9.820;2022-08-19T07:06:34;13.38;;;7.93;;
31786;SDS011;18356;52.380;9.820;2022-08-19T07:09:00;13.50;;;7.50;;
31786;SDS011;18356;52.380;9.820;2022-08-19T07:11:26;11.93;;;7.10;;
31786;SDS011;18356;52.380;9.820;2022-08-19T07:13:52;13.43;;;8.18;;
31786;SDS011;18356;52.380;9.820;2022-08-19T07:16:19;18.25;;;9.10;;
31786;SDS011;18356;52.380;9.820;2022-08-19T07:18:46;13.15;;;9.05;;
31786;SDS011;18356;52.380;9.820;2022-08-19T07:21:18;13.38;;;8.30;;
31786;SDS011;18356;52.380;9.820;2022-08-19T07:23:44;16.52;;;9.70;;
31786;SDS011;18356;52.380;9.820;2022-08-19T07:26:12;14.10;;;9.52;;
31786;SDS011;18356;52.380;9.820;2022-08-19T07:28:39;15.30;;;8.98;;
31786;SDS011;18356;52.380;9.820;2022-08-19T07:31:06;14.73;;;10.00;;
31786;SDS011;18356;52.380;9.820;2022-08-19T07:33:32;15.93;;;10.45;;
31786;SDS011;18356;52.380;9.820;2022-08-19T07:36:02;16.08;;;10.88;;
31786;SDS011;18356;52.380;9.820;2022-08-19T07:38:28;15.38;;;10.93;;
31786;SDS011;18356;52.380;9.820;2022-08-19T07:40:54;17.08;;;10.55;;
31786;SDS011;18356;52.380;9.820;2022-08-19T07:43:20;17.90;;;11.65;;
31786;SDS011;18356;52.380;9.820;2022-08-19T07:45:49;18.27;;;12.20;;
31786;SDS011;18356;52.380;9.820;2022-08-19T07:48:15;16.83;;;11.48;;
31786;SDS011;18356;52.380;9.820;2022-08-19T07:50:42;15.23;;;11.25;;
31786;SDS011;18356;52.380;9.820;2022-08-19T07:53:08;16.00;;;11.25;;
31786;SDS011;18356;52.380;9.820;2022-08-19T07:55:34;16.27;;;11.88;;
31786;SDS011;18356;52.380;9.820;2022-08-19T07:58:00;17.80;;;13.00;;
31786;SDS011;18356;52.380;9.820;2022-08-19T08:00:26;20.27;;;12.02;;
31786;SDS011;18356;52.380;9.820;2022-08-19T08:02:52;16.67;;;10.82;;
31786;SDS011;18356;52.380;9.820;2022-08-19T08:05:19;18.90;;;11.05;;
31786;SDS011;18356;52.380;9.820;2022-08-19T08:08:03;22.10;;;12.25;;
31786;SDS011;18356;52.380;9.820;2022-08-19T08:10:48;18.83;;;11.40;;
31786;SDS011;18356;52.380;9.820;2022-08-19T08:13:14;15.60;;;11.75;;
31786;SDS011;18356;52.380;9.820;2022-08-19T08:15:40;16.98;;;11.23;;
31786;SDS011;18356;52.380;9.820;2022-08-19T08:18:10;15.30;;;11.27;;
31786;SDS011;18356;52.380;9.820;2022-08-19T08:20:36;16.80;;;11.85;;
31786;SDS011;18356;52.380;9.820;2022-08-19T08:23:02;12.75;;;9.73;;
31786;SDS011;18356;52.380;9.820;2022-08-19T08:25:47;12.18;;;9.70;;
31786;SDS011;18356;52.380;9.820;2022-08-19T08:28:14;13.70;;;8.90;;
31786;SDS011;18356;52.380;9.820;2022-08-19T08:30:40;13.07;;;9.80;;
31786;SDS011;18356;52.380;9.820;2022-08-19T08:33:08;14.70;;;8.98;;
31786;SDS011;18356;52.380;9.820;2022-08-19T08:35:34;12.73;;;8.73;;
31786;SDS011;18356;52.380;9.820;2022-08-19T08:38:01;10.70;;;7.50;;
31786;SDS011;18356;52.380;9.820;2022-08-19T08:45:44;11.32;;;7.70;;
31786;SDS011;18356;52.380;9.820;2022-08-19T08:48:17;10.48;;;6.53;;
31786;SDS011;18356;52.380;9.820;2022-08-19T08:50:45;9.80;;;7.03;;
31786;SDS011;18356;52.380;9.820;2022-08-19T08:53:14;9.48;;;6.75;;
31786;SDS011;18356;52.380;9.820;2022-08-19T08:55:40;9.15;;;6.05;;
31786;SDS011;18356;52.380;9.820;2022-08-19T08:58:10;9.02;;;6.47;;
31786;SDS011;18356;52.380;9.820;2022-08-19T09:00:42;9.88;;;6.57;;
31786;SDS011;18356;52.380;9.820;2022-08-19T09:03:17;7.90;;;6.53;;
31786;SDS011;18356;52.380;9.820;2022-08-19T09:06:03;9.55;;;6.70;;
31786;SDS011;18356;52.380;9.820;2022-08-19T09:08:43;8.27;;;6.20;;
31786;SDS011;18356;52.380;9.820;2022-08-19T09:16:21;10.45;;;5.93;;
31786;SDS011;18356;52.380;9.820;2022-08-19T09:18:53;9.75;;;6.25;;
31786;SDS011;18356;52.380;9.820;2022-08-19T09:21:21;8.40;;;6.50;;
31786;SDS011;18356;52.380;9.820;2022-08-19T09:23:48;9.90;;;6.05;;
31786;SDS011;18356;52.380;9.820;2022-08-19T09:26:15;9.65;;;6.50;;
31786;SDS011;18356;52.380;9.820;2022-08-19T09:28:43;9.25;;;5.75;;
31786;SDS011;18356;52.380;9.820;2022-08-19T09:31:11;8.15;;;5.53;;
31786;SDS011;18356;52.380;9.820;2022-08-19T09:33:38;10.23;;;5.68;;
31786;SDS011;18356;52.380;9.820;2022-08-19T09:36:08;9.25;;;6.07;;
31786;SDS011;18356;52.380;9.820;2022-08-19T09:38:35;7.53;;;5.22;;
31786;SDS011;18356;52.380;9.820;2022-08-19T09:41:04;6.80;;;5.90;;
31786;SDS011;18356;52.380;9.820;2022-08-19T09:43:31;7.93;;;5.45;;
31786;SDS011;18356;52.380;9.820;2022-08-19T09:45:59;10.15;;;5.72;;
31786;SDS011;18356;52.380;9.820;2022-08-19T09:48:25;10.18;;;6.00;;
31786;SDS011;18356;52.380;9.820;2022-08-19T09:50:51;11.50;;;6.70;;
31786;SDS011;18356;52.380;9.820;2022-08-19T09:53:17;7.28;;;5.13;;
31786;SDS011;18356;52.380;9.820;2022-08-19T09:55:44;9.80;;;5.30;;
31786;SDS011;18356;52.380;9.820;2022-08-19T09:58:10;8.60;;;4.90;;
31786;SDS011;18356;52.380;9.820;2022-08-19T10:00:37;7.43;;;5.05;;
31786;SDS011;18356;52.380;9.820;2022-08-19T10:03:03;7.18;;;5.63;;
31786;SDS011;18356;52.380;9.820;2022-08-19T10:05:29;7.15;;;5.20;;
31786;SDS011;18356;52.380;9.820;2022-08-19T10:08:24;8.30;;;5.63;;
31786;SDS011;18356;52.380;9.820;2022-08-19T10:10:51;9.30;;;6.15;;
31786;SDS011;18356;52.380;9.820;2022-08-19T10:13:18;8.73;;;5.97;;
31786;SDS011;18356;52.380;9.820;2022-08-19T10:15:47;10.30;;;6.20;;
31786;SDS011;18356;52.380;9.820;2022-08-19T10:18:16;8.70;;;5.78;;
31786;SDS011;18356;52.380;9.820;2022-08-19T10:20:42;8.93;;;5.68;;
31786;SDS011;18356;52.380;9.820;2022-08-19T10:23:10;9.95;;;5.60;;
31786;SDS011;18356;52.380;9.820;2022-08-19T10:25:36;7.32;;;4.78;;
31786;SDS011;18356;52.380;9.820;2022-08-19T10:28:03;8.95;;;5.72;;
31786;SDS011;18356;52.380;9.820;2022-08-19T10:30:31;9.02;;;5.60;;
31786;SDS011;18356;52.380;9.820;2022-08-19T10:32:57;8.68;;;5.63;;
31786;SDS011;18356;52.380;9.820;2022-08-19T10:35:23;9.27;;;6.47;;
31786;SDS011;18356;52.380;9.820;2022-08-19T10:37:54;8.32;;;5.90;;
31786;SDS011;18356;52.380;9.820;2022-08-19T10:40:24;9.88;;;4.95;;
31786;SDS011;18356;52.380;9.820;2022-08-19T10:42:50;6.20;;;4.70;;
31786;SDS011;18356;52.380;9.820;2022-08-19T10:45:16;7.55;;;5.45;;
31786;SDS011;18356;52.380;9.820;2022-08-19T10:47:42;11.27;;;4.95;;
31786;SDS011;18356;52.380;9.820;2022-08-19T10:50:08;8.32;;;4.25;;
31786;SDS011;18356;52.380;9.820;2022-08-19T10:52:53;10.18;;;4.35;;
31786;SDS011;18356;52.380;9.820;2022-08-19T10:55:21;6.43;;;3.90;;
31786;SDS011;18356;52.380;9.820;2022-08-19T10:58:13;7.32;;;4.35;;
31786;SDS011;18356;52.380;9.820;2022-08-19T11:00:39;10.02;;;5.10;;
31786;SDS011;18356;52.380;9.820;2022-08-19T11:03:05;6.13;;;4.25;;
31786;SDS011;18356;52.380;9.820;2022-08-19T11:05:31;7.50;;;4.40;;
31786;SDS011;18356;52.380;9.820;2022-08-19T11:07:57;7.25;;;4.38;;
31786;SDS011;18356;52.380;9.820;2022-08-19T11:10:23;7.05;;;4.30;;
31786;SDS011;18356;52.380;9.820;2022-08-19T11:12:49;9.07;;;5.57;;
31786;SDS011;18356;52.380;9.820;2022-08-19T11:15:19;7.20;;;5.22;;
31786;SDS011;18356;52.380;9.820;2022-08-19T11:17:45;8.40;;;5.13;;
31786;SDS011;18356;52.380;9.820;2022-08-19T11:20:12;9.32;;;4.00;;
31786;SDS011;18356;52.380;9.820;2022-08-19T11:22:39;7.78;;;3.40;;
31786;SDS011;18356;52.380;9.820;2022-08-19T11:25:06;18.40;;;4.70;;
31786;SDS011;18356;52.380;9.820;2022-08-19T11:27:32;5.63;;;3.70;;
31786;SDS011;18356;52.380;9.820;2022-08-19T11:29:59;7.88;;;4.30;;
31786;SDS011;18356;52.380;9.820;2022-08-19T11:32:25;6.30;;;3.95;;
31786;SDS011;18356;52.380;9.820;2022-08-19T11:34:52;6.15;;;3.63;;
31786;SDS011;18356;52.380;9.820;2022-08-19T11:37:19;5.63;;;3.65;;
31786;SDS011;18356;52.380;9.820;2022-08-19T11:39:45;6.85;;;4.85;;
31786;SDS011;18356;52.380;9.820;2022-08-19T11:42:11;5.43;;;3.75;;
31786;SDS011;18356;52.380;9.820;2022-08-19T11:44:56;7.05;;;3.95;;
31786;SDS011;18356;52.380;9.820;2022-08-19T11:47:22;5.80;;;3.60;;
31786;SDS011;18356;52.380;9.820;2022-08-19T11:49:49;7.43;;;3.78;;
31786;SDS011;18356;52.380;9.820;2022-08-19T11:52:15;4.80;;;2.90;;
31786;SDS011;18356;52.380;9.820;2022-08-19T11:54:41;6.93;;;3.50;;
31786;SDS011;18356;52.380;9.820;2022-08-19T11:57:07;4.80;;;2.55;;
31786;SDS011;18356;52.380;9.820;2022-08-19T11:59:33;6.53;;;2.95;;
31786;SDS011;18356;52.380;9.820;2022-08-19T12:01:59;5.03;;;2.97;;
31786;SDS011;18356;52.380;9.820;2022-08-19T12:04:25;4.72;;;3.30;;
31786;SDS011;18356;52.380;9.820;2022-08-19T12:06:51;5.53;;;3.15;;
31786;SDS011;18356;52.380;9.820;2022-08-19T12:09:18;5.03;;;3.10;;
31786;SDS011;18356;52.380;9.820;2022-08-19T12:11:44;5.70;;;3.17;;
31786;SDS011;18356;52.380;9.820;2022-08-19T12:14:11;7.20;;;3.13;;
31786;SDS011;18356;52.380;9.820;2022-08-19T12:16:39;5.57;;;2.92;;
31786;SDS011;18356;52.380;9.820;2022-08-19T12:19:06;6.50;;;3.10;;
31786;SDS011;18356;52.380;9.820;2022-08-19T12:21:33;6.53;;;3.30;;
31786;SDS011;18356;52.380;9.820;2022-08-19T12:24:01;5.05;;;2.92;;
31786;SDS011;18356;52.380;9.820;2022-08-19T12:26:27;6.32;;;2.97;;
31786;SDS011;18356;52.380;9.820;2022-08-19T12:28:54;7.00;;;2.80;;
31786;SDS011;18356;52.380;9.820;2022-08-19T12:31:20;6.20;;;2.70;;
31786;SDS011;18356;52.380;9.820;2022-08-19T12:33:47;5.07;;;2.58;;
31786;SDS011;18356;52.380;9.820;2022-08-19T12:36:14;4.47;;;2.58;;
31786;SDS011;18356;52.380;9.820;2022-08-19T12:38:41;6.07;;;2.70;;
31786;SDS011;18356;52.380;9.820;2022-08-19T12:41:09;4.57;;;2.65;;
31786;SDS011;18356;52.380;9.820;2022-08-19T12:43:37;3.38;;;2.20;;
31786;SDS011;18356;52.380;9.820;2022-08-19T12:46:03;5.35;;;2.30;;
31786;SDS011;18356;52.380;9.820;2022-08-19T12:48:30;4.20;;;2.20;;
31786;SDS011;18356;52.380;9.820;2022-08-19T12:50:56;3.55;;;2.13;;
31786;SDS011;18356;52.380;9.820;2022-08-19T12:53:22;5.68;;;2.40;;
31786;SDS011;18356;52.380;9.820;2022-08-19T12:55:54;2.97;;;2.00;;
31786;SDS011;18356;52.380;9.820;2022-08-19T12:58:21;6.25;;;2.10;;
31786;SDS011;18356;52.380;9.820;2022-08-19T13:00:48;5.40;;;2.13;;
31786;SDS011;18356;52.380;9.820;2022-08-19T13:03:14;3.60;;;2.35;;
31786;SDS011;18356;52.380;9.820;2022-08-19T13:05:40;3.10;;;2.10;;
31786;SDS011;18356;52.380;9.820;2022-08-19T13:08:06;6.20;;;2.40;;
31786;SDS011;18356;52.380;9.820;2022-08-19T13:10:33;4.03;;;2.40;;
31786;SDS011;18356;52.380;9.820;2022-08-19T13:13:00;5.22;;;2.60;;
31786;SDS011;18356;52.380;9.820;2022-08-19T13:15:26;7.78;;;2.67;;
31786;SDS011;18356;52.380;9.820;2022-08-19T13:17:53;9.10;;;2.50;;
31786;SDS011;18356;52.380;9.820;2022-08-19T13:20:20;11.52;;;2.47;;
31786;SDS011;18356;52.380;9.820;2022-08-19T13:22:47;3.60;;;1.90;;
31786;SDS011;18356;52.380;9.820;2022-08-19T13:25:14;3.78;;;1.67;;
31786;SDS011;18356;52.380;9.820;2022-08-19T13:27:42;6.65;;;2.10;;
31786;SDS011;18356;52.380;9.820;2022-08-19T13:30:10;5.40;;;1.80;;
31786;SDS011;18356;52.380;9.820;2022-08-19T13:32:55;3.67;;;1.83;;
31786;SDS011;18356;52.380;9.820;2022-08-19T13:35:40;4.35;;;2.00;;
31786;SDS011;18356;52.380;9.820;2022-08-19T13:38:07;5.78;;;2.00;;
31786;SDS011;18356;52.380;9.820;2022-08-19T13:40:34;5.15;;;1.80;;
31786;SDS011;18356;52.380;9.820;2022-08-19T13:43:01;4.57;;;1.63;;
31786;SDS011;18356;52.380;9.820;2022-08-19T13:45:28;3.97;;;1.90;;
31786;SDS011;18356;52.380;9.820;2022-08-19T13:47:55;8.98;;;2.05;;
31786;SDS011;18356;52.380;9.820;2022-08-19T13:50:22;4.15;;;2.05;;
31786;SDS011;18356;52.380;9.820;2022-08-19T13:52:50;5.05;;;1.90;;
31786;SDS011;18356;52.380;9.820;2022-08-19T13:55:16;4.35;;;1.65;;
31786;SDS011;18356;52.380;9.820;2022-08-19T13:57:42;5.40;;;1.60;;
31786;SDS011;18356;52.380;9.820;2022-08-19T14:00:10;4.35;;;1.50;;
31786;SDS011;18356;52.380;9.820;2022-08-19T14:02:37;4.78;;;1.40;;
31786;SDS011;18356;52.380;9.820;2022-08-19T14:05:04;5.97;;;1.50;;
31786;SDS011;18356;52.380;9.820;2022-08-19T14:07:30;3.00;;;1.25;;
31786;SDS011;18356;52.380;9.820;2022-08-19T14:09:57;4.88;;;1.55;;
31786;SDS011;18356;52.380;9.820;2022-08-19T14:12:23;3.15;;;1.50;;
31786;SDS011;18356;52.380;9.820;2022-08-19T14:14:49;4.00;;;1.33;;
31786;SDS011;18356;52.380;9.820;2022-08-19T14:17:15;2.78;;;1.50;;
31786;SDS011;18356;52.380;9.820;2022-08-19T14:19:41;3.70;;;1.33;;
31786;SDS011;18356;52.380;9.820;2022-08-19T14:22:08;2.70;;;1.40;;
31786;SDS011;18356;52.380;9.820;2022-08-19T14:24:34;5.78;;;1.50;;
31786;SDS011;18356;52.380;9.820;2022-08-19T14:27:00;4.95;;;1.30;;
31786;SDS011;18356;52.380;9.820;2022-08-19T14:29:28;2.78;;;1.30;;
31786;SDS011;18356;52.380;9.820;2022-08-19T14:31:54;3.70;;;1.48;;
31786;SDS011;18356;52.380;9.820;2022-08-19T14:34:24;6.13;;;1.70;;
31786;SDS011;18356;52.380;9.820;2022-08-19T14:36:50;5.03;;;1.40;;
31786;SDS011;18356;52.380;9.820;2022-08-19T14:39:16;3.78;;;1.20;;
31786;SDS011;18356;52.380;9.820;2022-08-19T14:41:42;4.10;;;1.38;;
31786;SDS011;18356;52.380;9.820;2022-08-19T14:44:08;3.15;;;1.33;;
31786;SDS011;18356;52.380;9.820;2022-08-19T14:46:37;3.25;;;1.50;;
31786;SDS011;18356;52.380;9.820;2022-08-19T14:49:03;2.45;;;1.45;;
31786;SDS011;18356;52.380;9.820;2022-08-19T14:51:30;4.00;;;1.30;;
31786;SDS011;18356;52.380;9.820;2022-08-19T14:53:56;3.28;;;1.23;;
31786;SDS011;18356;52.380;9.820;2022-08-19T14:56:27;4.57;;;1.38;;